Startpagina
METAR-TAF:

METAR-TAF

Vliegvelden :

Zagreb, Kroatië

Luchthaven Franjo Tuđman Zagreb

breedte: 45-44N, lengte: 016-04E, hoogte: 106 m

Actueel weer

Dit bericht is 18 minuten geleden gemaakt, om 21:00 UTC
Weinig wind
Temperatuur 9°C
Vochtigheid 71%
Druk 1002 hPa
Zicht 10 km of meer
Gebroken wolken op 4000 ft

METAR: LDZA 162100Z 00000KT 9999 BKN040 09/04 Q1002 NOSIG

Tijdstip: 22:18 (21:18 UTC)

Verwachting

Dit bericht is 3 uur en het 53 minuten geleden gemaakt, om 17:25 UTC
Verwachting geldig van 16 om 18 UTC tot 17 om 18 UTC
Wind 8 kt uit het westen
Zicht 10 km of meer
Gebroken wolken op 3500 ft
Kans 30% :
Tijdelijke
van 17 om 03 UTC tot 17 om 09 UTC
Zicht: 4000 m
lichte regen, nevel
Tijdelijke
van 17 om 10 UTC tot 17 om 18 UTC
Wind 10 kt uit het noordwesten

TAF: LDZA 161725Z 1618/1718 26008KT 9999 BKN035 TX09/1618Z TN03/1703Z PROB30 TEMPO 1703/1709 4000 -RA BR TEMPO 1710/1718 32010KT

Waarnemingen en weersverwachtingen van meer dan 4000 vliegvelden (METAR en TAF).

De beschikbare stations zijn de gele en rode punten op de kaart.

Ga met uw muis naar het station om de naam te zien.

Klik dan om waarnemingen en weersverwachtingen te zien.

kaart wijzigen: klik op de groene knoppen met een zwart kruis om in te zoomen, op de groene knop met een streepje om uit te zoomen of op de groene pijlen voor aangrenzende kaarten.


METAR-TAF: